createdAt,value
2023-05-20T00:00:32.857Z,7.20
2023-05-20T00:03:03.785Z,7.30
2023-05-20T00:05:34.675Z,7.50
2023-05-20T00:08:10.133Z,7.60
2023-05-20T00:10:40.846Z,7.80
2023-05-20T00:13:11.610Z,7.90
2023-05-20T00:15:43.216Z,8.10
2023-05-20T00:18:17.135Z,8.20
2023-05-20T00:20:48.228Z,8.30
2023-05-20T00:23:19.007Z,8.40
2023-05-20T00:25:49.329Z,8.50
2023-05-20T00:28:19.929Z,8.60
2023-05-20T00:30:50.484Z,8.70
2023-05-20T00:33:20.766Z,8.90
2023-05-20T00:35:51.182Z,9.10
2023-05-20T00:38:22.268Z,9.30
2023-05-20T00:40:52.576Z,9.50
2023-05-20T00:43:24.367Z,9.70
2023-05-20T00:45:56.805Z,9.90
2023-05-20T00:48:27.650Z,10.10
2023-05-20T00:50:58.675Z,10.30
2023-05-20T00:53:30.310Z,10.60
2023-05-20T00:56:00.637Z,10.80
2023-05-20T00:58:31.270Z,11.00
2023-05-20T01:01:02.195Z,11.30
2023-05-20T01:03:33.386Z,11.60
2023-05-20T01:06:04.651Z,11.80
2023-05-20T01:08:35.995Z,11.90
2023-05-20T01:11:10.981Z,12.00
2023-05-20T01:13:57.595Z,12.00
2023-05-20T01:16:29.595Z,11.90
2023-05-20T01:19:02.613Z,11.80
2023-05-20T01:21:35.049Z,11.80
2023-05-20T01:24:07.757Z,11.70
2023-05-20T01:26:40.041Z,11.70
2023-05-20T01:29:10.484Z,11.70
2023-05-20T01:31:42.546Z,11.70
2023-05-20T01:34:13.486Z,11.60
2023-05-20T01:36:45.563Z,11.60
2023-05-20T01:39:16.920Z,11.60
2023-05-20T01:41:48.416Z,11.60
2023-05-20T01:44:18.963Z,11.70
2023-05-20T01:46:52.907Z,11.70
2023-05-20T01:49:23.599Z,11.70
2023-05-20T01:51:53.947Z,11.70
2023-05-20T01:54:24.758Z,11.80
2023-05-20T01:56:55.887Z,11.80
2023-05-20T01:59:26.656Z,11.70
2023-05-20T02:01:57.488Z,11.80
2023-05-20T02:04:27.977Z,11.90
2023-05-20T02:07:19.314Z,11.90
2023-05-20T02:10:02.459Z,12.00
2023-05-20T02:12:39.631Z,12.00
2023-05-20T02:15:10.498Z,12.00
2023-05-20T02:17:49.716Z,12.10
2023-05-20T02:20:21.355Z,12.10
2023-05-20T02:22:53.271Z,12.20
2023-05-20T02:25:23.844Z,12.20
2023-05-20T02:27:54.268Z,12.30
2023-05-20T02:30:24.934Z,12.40
2023-05-20T02:32:55.542Z,12.60
2023-05-20T02:35:26.491Z,12.70
2023-05-20T02:37:56.847Z,12.70
2023-05-20T02:40:27.281Z,12.70
2023-05-20T02:42:57.788Z,12.60
2023-05-20T02:45:28.392Z,12.60
2023-05-20T02:47:59.384Z,12.60
2023-05-20T02:50:30.575Z,12.60
2023-05-20T02:53:01.337Z,12.50
2023-05-20T02:55:31.818Z,12.50
2023-05-20T02:58:02.670Z,12.50
2023-05-20T03:00:33.301Z,12.50
2023-05-20T03:03:04.425Z,12.50
2023-05-20T03:05:35.922Z,12.50
2023-05-20T03:08:13.557Z,12.60
2023-05-20T03:10:49.136Z,12.70
2023-05-20T03:13:21.519Z,12.60
2023-05-20T03:15:52.694Z,12.60
2023-05-20T03:18:23.298Z,12.60
2023-05-20T03:20:53.840Z,12.60
2023-05-20T03:23:24.229Z,12.50
2023-05-20T03:25:54.608Z,12.50
2023-05-20T03:28:24.901Z,12.50
2023-05-20T03:30:55.729Z,12.60
2023-05-20T03:33:27.945Z,12.70
2023-05-20T03:35:58.564Z,12.80
2023-05-20T03:38:32.320Z,12.80
2023-05-20T03:41:02.643Z,12.80
2023-05-20T03:43:33.632Z,12.70
2023-05-20T03:46:04.038Z,12.70
2023-05-20T03:48:34.322Z,12.70
2023-05-20T03:51:05.203Z,12.60
2023-05-20T03:53:35.985Z,12.70
2023-05-20T03:56:08.758Z,12.80
2023-05-20T03:58:40.784Z,12.90
2023-05-20T04:01:11.502Z,12.80
2023-05-20T04:03:44.131Z,12.70
2023-05-20T04:06:15.935Z,12.60
2023-05-20T04:08:46.218Z,12.50
2023-05-20T04:11:16.615Z,12.40
2023-05-20T04:13:46.870Z,12.50
2023-05-20T04:16:17.382Z,12.40
2023-05-20T04:18:47.770Z,12.40
2023-05-20T04:21:18.134Z,12.30
2023-05-20T04:23:48.828Z,12.20
2023-05-20T04:26:19.255Z,12.10
2023-05-20T04:28:53.223Z,12.10
2023-05-20T04:31:28.522Z,12.10
2023-05-20T04:34:00.093Z,12.00
2023-05-20T04:36:31.355Z,12.00
2023-05-20T04:39:02.213Z,12.10
2023-05-20T04:41:33.717Z,12.10
2023-05-20T04:44:05.587Z,12.10
2023-05-20T04:46:36.749Z,12.10
2023-05-20T04:49:07.738Z,12.10
2023-05-20T04:51:39.477Z,12.00
2023-05-20T04:54:10.266Z,12.00
2023-05-20T04:56:43.507Z,12.00
2023-05-20T04:59:15.869Z,12.00
2023-05-20T05:01:47.545Z,12.00
2023-05-20T05:04:18.104Z,11.90
2023-05-20T05:06:50.152Z,11.90
2023-05-20T05:09:20.931Z,11.90
2023-05-20T05:11:51.492Z,11.90
2023-05-20T05:14:21.790Z,11.80
2023-05-20T05:16:54.815Z,11.80
2023-05-20T05:19:26.045Z,11.60
2023-05-20T05:21:56.436Z,11.50
2023-05-20T05:24:26.725Z,11.50
2023-05-20T05:26:59.849Z,11.40
2023-05-20T05:29:30.592Z,11.40
2023-05-20T05:32:01.222Z,11.30
2023-05-20T05:34:32.814Z,11.20
2023-05-20T05:37:03.450Z,11.10
2023-05-20T05:39:34.285Z,11.10
2023-05-20T05:42:05.003Z,11.00
2023-05-20T05:44:35.620Z,10.90
2023-05-20T05:47:06.198Z,10.80
2023-05-20T05:49:37.334Z,10.70
2023-05-20T05:52:08.332Z,10.60
2023-05-20T05:54:38.697Z,10.60
2023-05-20T05:57:09.607Z,10.50
2023-05-20T05:59:39.973Z,10.40
2023-05-20T06:02:12.607Z,10.40
2023-05-20T06:04:43.276Z,10.30
2023-05-20T06:07:13.610Z,10.20
2023-05-20T06:09:43.908Z,10.20
2023-05-20T06:12:14.312Z,10.20
2023-05-20T06:14:44.659Z,10.10
2023-05-20T06:17:15.045Z,10.10
2023-05-20T06:19:45.293Z,10.10
2023-05-20T06:22:16.030Z,10.10
2023-05-20T06:24:46.758Z,10.10
2023-05-20T06:27:17.078Z,10.10
2023-05-20T06:29:48.645Z,10.10
2023-05-20T06:32:19.387Z,10.10
2023-05-20T06:34:51.797Z,10.10
2023-05-20T06:37:22.537Z,10.00
2023-05-20T06:39:56.574Z,10.10
2023-05-20T06:42:27.509Z,10.10
2023-05-20T06:44:57.803Z,10.00
2023-05-20T06:47:28.330Z,10.10
2023-05-20T06:49:58.717Z,10.00
2023-05-20T06:52:29.527Z,10.00
2023-05-20T06:55:00.266Z,10.00
2023-05-20T06:57:30.983Z,10.00
2023-05-20T07:00:01.397Z,9.90
2023-05-20T07:02:32.171Z,9.80
2023-05-20T07:05:02.451Z,9.80
2023-05-20T07:07:32.788Z,9.70
2023-05-20T07:10:03.683Z,9.60
2023-05-20T07:12:36.757Z,9.50
2023-05-20T07:15:08.176Z,9.50
2023-05-20T07:17:38.738Z,9.40
2023-05-20T07:20:10.313Z,9.30
2023-05-20T07:22:40.776Z,9.30
2023-05-20T07:25:12.019Z,9.30
2023-05-20T07:27:42.504Z,9.30
2023-05-20T07:30:13.149Z,9.30
2023-05-20T07:32:44.444Z,9.30
2023-05-20T07:35:14.749Z,9.30
2023-05-20T07:37:45.077Z,9.30
2023-05-20T07:40:16.219Z,9.20
2023-05-20T07:42:47.322Z,9.20
2023-05-20T07:45:18.218Z,9.20
2023-05-20T07:47:48.582Z,9.20
2023-05-20T07:50:19.021Z,9.10
2023-05-20T07:55:25.391Z,9.00
2023-05-20T07:57:57.245Z,8.90
2023-05-20T08:00:27.620Z,8.90
2023-05-20T08:02:58.111Z,8.90
2023-05-20T08:05:28.554Z,8.80
2023-05-20T08:07:59.234Z,8.80
2023-05-20T08:10:30.822Z,8.80
2023-05-20T08:13:01.131Z,8.80
2023-05-20T08:15:31.470Z,8.80
2023-05-20T08:18:44.175Z,8.80
2023-05-20T08:21:24.982Z,8.80
2023-05-20T08:23:56.358Z,8.90
2023-05-20T08:26:26.744Z,8.90
2023-05-20T08:28:57.234Z,9.00
2023-05-20T08:31:27.592Z,9.00
2023-05-20T08:33:57.969Z,9.00
2023-05-20T08:36:28.259Z,9.10
2023-05-20T08:38:58.844Z,9.10
2023-05-20T08:41:30.319Z,9.10
2023-05-20T08:44:04.250Z,9.10
2023-05-20T08:46:36.642Z,9.20
2023-05-20T08:49:07.131Z,9.20
2023-05-20T08:51:40.643Z,9.20
2023-05-20T08:54:14.033Z,9.20
2023-05-20T08:56:45.840Z,9.20
2023-05-20T08:59:17.263Z,9.20
2023-05-20T09:01:48.322Z,9.20
2023-05-20T09:04:19.887Z,9.20
2023-05-20T09:06:53.270Z,9.10
2023-05-20T09:09:24.117Z,9.10
2023-05-20T09:11:54.731Z,9.10
2023-05-20T09:14:29.044Z,9.10
2023-05-20T09:16:59.687Z,9.10
2023-05-20T09:19:31.416Z,9.10
2023-05-20T09:22:02.310Z,9.10
2023-05-20T09:24:33.364Z,9.10
2023-05-20T09:27:04.348Z,9.20
2023-05-20T09:29:36.864Z,9.20
2023-05-20T09:32:08.517Z,9.20
2023-05-20T09:34:40.290Z,9.20
2023-05-20T09:37:11.784Z,9.20
2023-05-20T09:40:12.067Z,9.30
2023-05-20T09:42:53.351Z,9.30
2023-05-20T09:45:24.706Z,9.30
2023-05-20T09:47:56.705Z,9.20
2023-05-20T09:50:28.095Z,9.30
2023-05-20T09:52:59.223Z,9.30
2023-05-20T09:55:31.333Z,9.30
2023-05-20T09:58:05.958Z,9.30
2023-05-20T10:00:36.428Z,9.40
2023-05-20T10:03:07.564Z,9.40
2023-05-20T10:05:54.976Z,9.40
2023-05-20T10:09:02.096Z,9.40
2023-05-20T10:12:00.840Z,9.40
2023-05-20T10:15:21.902Z,9.30
2023-05-20T10:18:03.666Z,9.30
2023-05-20T10:20:35.539Z,9.30
2023-05-20T10:23:07.734Z,9.30
2023-05-20T10:25:38.856Z,9.30
2023-05-20T10:28:11.526Z,9.30
2023-05-20T10:30:53.072Z,9.30
2023-05-20T10:33:23.638Z,9.30
2023-05-20T10:35:54.774Z,9.30
2023-05-20T10:38:33.992Z,9.30
2023-05-20T10:41:13.560Z,9.30
2023-05-20T10:43:45.731Z,9.30
2023-05-20T10:46:34.969Z,9.30
2023-05-20T10:49:26.985Z,9.30
2023-05-20T10:51:57.975Z,9.30
2023-05-20T10:54:29.189Z,9.30
2023-05-20T10:57:02.087Z,9.30
2023-05-20T10:59:32.969Z,9.30
2023-05-20T11:02:05.197Z,9.30
2023-05-20T11:04:36.122Z,9.20
2023-05-20T11:07:08.149Z,9.20
2023-05-20T11:09:38.928Z,9.20
2023-05-20T11:12:10.103Z,9.20
2023-05-20T11:14:41.510Z,9.30
2023-05-20T11:17:13.457Z,9.20
2023-05-20T11:19:43.876Z,9.20
2023-05-20T11:22:14.201Z,9.20
2023-05-20T11:24:44.512Z,9.10
2023-05-20T11:27:14.914Z,9.10
2023-05-20T11:29:45.973Z,9.00
2023-05-20T11:32:16.340Z,9.00
2023-05-20T11:34:46.684Z,9.00
2023-05-20T11:37:17.582Z,8.90
2023-05-20T11:39:47.864Z,8.90
2023-05-20T11:42:18.768Z,8.90
2023-05-20T11:44:50.504Z,8.80
2023-05-20T11:47:31.718Z,8.80
2023-05-20T11:50:04.492Z,8.80
2023-05-20T11:52:36.982Z,8.80
2023-05-20T11:55:07.772Z,8.90
2023-05-20T11:57:38.355Z,8.90
2023-05-20T12:00:12.539Z,8.90
2023-05-20T12:02:42.887Z,8.90
2023-05-20T12:05:13.294Z,8.90
2023-05-20T12:07:43.643Z,8.90
2023-05-20T12:10:15.471Z,8.90
2023-05-20T12:12:47.207Z,8.90
2023-05-20T12:15:17.788Z,8.90
2023-05-20T12:17:55.549Z,8.90
2023-05-20T12:20:27.459Z,9.00
2023-05-20T12:22:58.318Z,9.00
2023-05-20T12:25:29.126Z,9.10
2023-05-20T12:27:59.533Z,9.10
2023-05-20T12:30:29.793Z,9.10
2023-05-20T12:33:00.104Z,9.10
2023-05-20T12:35:41.605Z,9.20
2023-05-20T12:38:12.899Z,9.10
2023-05-20T12:40:43.290Z,9.10
2023-05-20T12:43:13.719Z,9.10
2023-05-20T12:45:45.053Z,9.10
2023-05-20T12:48:15.364Z,9.10
2023-05-20T12:50:45.929Z,9.10
2023-05-20T12:53:16.650Z,9.00
2023-05-20T12:55:46.961Z,9.00
2023-05-20T12:58:17.254Z,9.00
2023-05-20T13:00:48.808Z,9.00
2023-05-20T13:03:19.309Z,8.90
2023-05-20T13:05:49.660Z,8.90
2023-05-20T13:11:02.828Z,8.70
2023-05-20T13:13:33.540Z,8.70
2023-05-20T13:16:04.441Z,8.60
2023-05-20T13:18:34.724Z,8.50
2023-05-20T13:21:05.136Z,8.40
2023-05-20T13:23:35.899Z,8.40
2023-05-20T13:26:06.652Z,8.30
2023-05-20T13:28:37.138Z,8.30
2023-05-20T13:31:08.838Z,8.20
2023-05-20T13:33:39.128Z,8.30
2023-05-20T13:36:09.664Z,8.30
2023-05-20T13:38:39.997Z,8.30
2023-05-20T13:41:10.771Z,8.30
2023-05-20T13:43:43.781Z,8.40
2023-05-20T13:46:14.264Z,8.40
2023-05-20T13:48:44.645Z,8.30
2023-05-20T13:51:15.230Z,8.30
2023-05-20T13:53:45.517Z,8.30
2023-05-20T13:56:16.165Z,8.40
2023-05-20T13:58:46.499Z,8.40
2023-05-20T14:01:17.561Z,8.40
2023-05-20T14:03:48.135Z,8.40
2023-05-20T14:06:20.527Z,8.40
2023-05-20T14:08:50.962Z,8.40
2023-05-20T14:11:22.284Z,8.50
2023-05-20T14:13:52.677Z,8.50
2023-05-20T14:16:23.295Z,8.50
2023-05-20T14:18:53.690Z,8.50
2023-05-20T14:21:25.334Z,8.50
2023-05-20T14:23:55.602Z,8.50
2023-05-20T14:26:25.914Z,8.50
2023-05-20T14:28:56.244Z,8.50
2023-05-20T14:31:26.623Z,8.50
2023-05-20T14:33:57.111Z,8.50
2023-05-20T14:36:27.527Z,8.50
2023-05-20T14:38:57.841Z,8.50
2023-05-20T14:41:28.372Z,8.50
2023-05-20T14:43:58.700Z,8.50
2023-05-20T14:46:32.106Z,8.50
2023-05-20T14:49:05.547Z,8.60
2023-05-20T14:51:36.327Z,8.60
2023-05-20T14:54:07.696Z,8.60
2023-05-20T14:56:41.076Z,8.60
2023-05-20T14:59:11.470Z,8.60
2023-05-20T15:01:42.349Z,8.60
2023-05-20T15:04:12.695Z,8.70
2023-05-20T15:06:43.369Z,8.70
2023-05-20T15:09:13.632Z,8.70
2023-05-20T15:11:44.093Z,8.70
2023-05-20T15:14:14.414Z,8.70
2023-05-20T15:16:46.581Z,8.70
2023-05-20T15:19:18.602Z,8.70
2023-05-20T15:21:48.988Z,8.80
2023-05-20T15:24:20.486Z,8.80
2023-05-20T15:26:51.139Z,8.80
2023-05-20T15:29:21.512Z,8.80
2023-05-20T15:31:51.957Z,8.80
2023-05-20T15:34:22.237Z,8.80
2023-05-20T15:36:52.511Z,8.80
2023-05-20T15:39:22.790Z,8.80
2023-05-20T15:41:54.059Z,8.80
2023-05-20T15:44:24.354Z,8.80
2023-05-20T15:46:56.031Z,8.80
2023-05-20T15:49:26.388Z,8.80
2023-05-20T15:52:03.717Z,8.70
2023-05-20T15:54:36.174Z,8.70
2023-05-20T15:57:07.622Z,8.70
2023-05-20T15:59:39.794Z,8.60
2023-05-20T16:02:10.550Z,8.60
2023-05-20T16:04:41.393Z,8.60
2023-05-20T16:07:12.165Z,8.60
2023-05-20T16:09:43.007Z,8.60
2023-05-20T16:12:14.457Z,8.60
2023-05-20T16:14:47.375Z,8.60
2023-05-20T16:17:22.940Z,8.60
2023-05-20T16:19:53.385Z,8.60
2023-05-20T16:22:23.823Z,8.70
2023-05-20T16:24:54.161Z,8.70
2023-05-20T16:27:24.388Z,8.70
2023-05-20T16:29:54.723Z,8.70
2023-05-20T16:32:25.135Z,8.60
2023-05-20T16:34:56.465Z,8.70
2023-05-20T16:37:26.697Z,8.70
2023-05-20T16:39:57.791Z,8.70
2023-05-20T16:42:28.242Z,8.60
2023-05-20T16:44:58.540Z,8.60
2023-05-20T16:47:29.940Z,8.60
2023-05-20T16:50:00.322Z,8.50
2023-05-20T16:52:30.619Z,8.50
2023-05-20T16:55:04.683Z,8.40
2023-05-20T16:57:35.060Z,8.40
2023-05-20T17:00:12.999Z,8.40
2023-05-20T17:02:43.506Z,8.40
2023-05-20T17:05:16.628Z,8.40
2023-05-20T17:07:47.373Z,8.40
2023-05-20T17:10:18.096Z,8.40
2023-05-20T17:12:48.748Z,8.50
2023-05-20T17:15:19.245Z,8.50
2023-05-20T17:17:49.592Z,8.50
2023-05-20T17:20:20.671Z,8.60
2023-05-20T17:22:51.509Z,8.60
2023-05-20T17:25:21.893Z,8.60
2023-05-20T17:27:52.956Z,8.60
2023-05-20T17:30:23.882Z,8.70
2023-05-20T17:32:54.426Z,8.70
2023-05-20T17:35:27.548Z,8.80
2023-05-20T17:37:58.589Z,8.80
2023-05-20T17:40:29.156Z,8.80
2023-05-20T17:42:59.809Z,8.70
2023-05-20T17:45:30.141Z,8.70
2023-05-20T17:48:00.902Z,8.80
2023-05-20T17:50:31.727Z,8.80
2023-05-20T17:53:02.679Z,8.80
2023-05-20T17:55:34.294Z,8.80
2023-05-20T17:58:05.226Z,8.80
2023-05-20T18:00:44.220Z,8.70
2023-05-20T18:03:15.712Z,8.80
2023-05-20T18:05:46.900Z,8.80
2023-05-20T18:08:20.853Z,8.80
2023-05-20T18:10:51.263Z,8.80
2023-05-20T18:13:21.684Z,8.80
2023-05-20T18:15:53.687Z,8.80
2023-05-20T18:18:24.132Z,8.80
2023-05-20T18:20:56.757Z,8.80
2023-05-20T18:23:27.158Z,8.90
2023-05-20T18:25:57.842Z,8.90
2023-05-20T18:28:28.329Z,8.90
2023-05-20T18:31:00.868Z,8.80
2023-05-20T18:33:31.454Z,8.90
2023-05-20T18:36:02.306Z,8.80
2023-05-20T18:38:32.676Z,8.80
2023-05-20T18:41:03.247Z,8.80
2023-05-20T18:43:33.556Z,8.80
2023-05-20T18:46:04.023Z,8.80
2023-05-20T18:48:34.863Z,8.80
2023-05-20T18:51:05.289Z,8.80
2023-05-20T18:53:36.094Z,8.80
2023-05-20T18:56:07.970Z,8.80
2023-05-20T18:58:38.603Z,8.80
2023-05-20T19:01:09.466Z,8.90
2023-05-20T19:03:39.847Z,8.90
2023-05-20T19:06:10.361Z,8.90
2023-05-20T19:08:41.074Z,8.90
2023-05-20T19:11:11.564Z,8.90
2023-05-20T19:13:41.816Z,8.90
2023-05-20T19:16:12.426Z,8.90
2023-05-20T19:18:43.368Z,8.90
2023-05-20T19:21:14.245Z,8.80
2023-05-20T19:23:45.329Z,8.80
2023-05-20T19:26:16.138Z,8.80
2023-05-20T19:28:46.927Z,8.90
2023-05-20T19:31:22.964Z,8.80
2023-05-20T19:33:53.907Z,8.80
2023-05-20T19:36:24.825Z,8.80
2023-05-20T19:38:55.098Z,8.80
2023-05-20T19:41:25.503Z,8.80
2023-05-20T19:43:55.755Z,8.80
2023-05-20T19:46:26.272Z,8.80
2023-05-20T19:48:56.840Z,8.80
2023-05-20T19:51:27.920Z,8.80
2023-05-20T19:53:58.295Z,8.80
2023-05-20T19:56:30.532Z,8.80
2023-05-20T19:59:03.668Z,8.80
2023-05-20T20:04:52.765Z,8.80
2023-05-20T20:07:23.527Z,8.80
2023-05-20T20:09:56.968Z,8.70
2023-05-20T20:12:27.281Z,8.70
2023-05-20T20:14:58.386Z,8.60
2023-05-20T20:17:28.658Z,8.60
2023-05-20T20:20:00.132Z,8.50
2023-05-20T20:22:30.483Z,8.50
2023-05-20T20:25:01.246Z,8.50
2023-05-20T20:27:31.958Z,8.60
2023-05-20T20:30:02.441Z,8.60
2023-05-20T20:32:33.613Z,8.60
2023-05-20T20:35:05.183Z,8.60
2023-05-20T20:37:36.120Z,8.60
2023-05-20T20:40:14.746Z,8.60
2023-05-20T20:42:47.274Z,8.70
2023-05-20T20:45:18.534Z,8.70
2023-05-20T20:47:52.912Z,8.70
2023-05-20T20:50:24.275Z,8.70
2023-05-20T20:52:54.996Z,8.70
2023-05-20T20:55:25.400Z,8.70
2023-05-20T20:57:55.995Z,8.70
2023-05-20T21:00:27.116Z,8.70
2023-05-20T21:02:58.283Z,8.70
2023-05-20T21:05:30.914Z,8.70
2023-05-20T21:08:04.809Z,8.70
2023-05-20T21:10:36.130Z,8.60
2023-05-20T21:13:06.872Z,8.60
2023-05-20T21:15:37.700Z,8.60
2023-05-20T21:18:08.042Z,8.60
2023-05-20T21:20:38.281Z,8.60
2023-05-20T21:23:08.990Z,8.60
2023-05-20T21:25:39.219Z,8.60
2023-05-20T21:28:09.874Z,8.50
2023-05-20T21:30:41.308Z,8.50
2023-05-20T21:33:12.066Z,8.60
2023-05-20T21:35:42.502Z,8.60
2023-05-20T21:38:18.372Z,8.60
2023-05-20T21:40:48.631Z,8.60
2023-05-20T21:43:18.978Z,8.50
2023-05-20T21:45:49.376Z,8.50
2023-05-20T21:48:20.081Z,8.50
2023-05-20T21:50:50.398Z,8.50
2023-05-20T21:53:20.979Z,8.40
2023-05-20T21:55:51.805Z,8.40
2023-05-20T21:58:22.223Z,8.40
2023-05-20T22:00:52.562Z,8.40
2023-05-20T22:03:24.218Z,8.40
2023-05-20T22:05:54.631Z,8.40
2023-05-20T22:08:32.513Z,8.40
2023-05-20T22:11:08.946Z,8.40
2023-05-20T22:14:00.811Z,8.40
2023-05-20T22:16:38.380Z,8.40
2023-05-20T22:19:09.532Z,8.40
2023-05-20T22:21:49.078Z,8.50
2023-05-20T22:24:23.204Z,8.40
2023-05-20T22:26:54.835Z,8.50
2023-05-20T22:29:26.180Z,8.50
2023-05-20T22:31:56.864Z,8.50
2023-05-20T22:34:27.359Z,8.50
2023-05-20T22:36:58.222Z,8.50
2023-05-20T22:39:30.172Z,8.60
2023-05-20T22:42:02.054Z,8.60
2023-05-20T22:44:32.665Z,8.60
2023-05-20T22:47:03.145Z,8.70
2023-05-20T22:49:34.354Z,8.70
2023-05-20T22:52:04.699Z,8.80
2023-05-20T22:54:36.225Z,8.80
2023-05-20T22:57:07.088Z,8.80
2023-05-20T22:59:39.407Z,8.90
2023-05-20T23:02:11.231Z,8.90
2023-05-20T23:04:44.098Z,8.90
2023-05-20T23:07:16.476Z,8.90
2023-05-20T23:09:47.829Z,8.90
2023-05-20T23:12:18.896Z,9.00
2023-05-20T23:14:49.160Z,9.00
2023-05-20T23:17:19.429Z,9.00
2023-05-20T23:19:49.746Z,9.10
2023-05-20T23:22:20.593Z,9.20
2023-05-20T23:24:50.938Z,9.30
2023-05-20T23:27:21.168Z,9.40
2023-05-20T23:29:51.911Z,9.40
2023-05-20T23:32:22.150Z,9.60
2023-05-20T23:34:54.920Z,9.70
2023-05-20T23:37:25.807Z,9.90
2023-05-20T23:39:56.496Z,10.10
2023-05-20T23:42:26.822Z,10.20
2023-05-20T23:44:57.543Z,10.40
2023-05-20T23:47:31.925Z,10.60
2023-05-20T23:50:03.032Z,10.70
2023-05-20T23:52:33.407Z,10.90
2023-05-20T23:55:04.081Z,11.10
2023-05-20T23:57:35.835Z,11.30
